Time;durP1;ratioP1;P1;durP2;ratioP2;P2;SDS_P1;SDS_P2;PMS_P1;PMS_P2;Temp;Humidity;BMP_temperature;BMP_pressure;BME280_temperature;BME280_humidity;BME280_pressure;Samples;Min_cycle;Max_cycle;Signal;HPM_P1;HPM_P2
2022/05/14 00:02:14;;;;;;;48.92;37.58;;;;;;;9.58;100.00;98810.26;1690570;85;21173;-66
2022/05/14 00:04:41;;;;;;;43.15;34.63;;;;;;;9.57;100.00;98809.42;1690246;85;20964;-68
2022/05/14 00:07:07;;;;;;;43.30;33.73;;;;;;;9.55;100.00;98803.52;1690399;85;20945;-67
2022/05/14 00:09:34;;;;;;;46.68;33.08;;;;;;;9.54;100.00;98807.28;1690410;85;20965;-69
2022/05/14 00:14:46;;;;;;;35.73;29.82;;;;;;;9.51;100.00;98801.12;1690574;84;21275;-67
2022/05/14 00:17:13;;;;;;;44.05;33.75;;;;;;;9.48;100.00;98798.98;1690376;85;20953;-68
2022/05/14 00:19:40;;;;;;;48.28;38.98;;;;;;;9.52;100.00;98804.06;1690528;85;20960;-69
2022/05/14 00:22:07;;;;;;;56.23;40.10;;;;;;;9.60;100.00;98802.73;1690567;84;21000;-67
2022/05/14 00:24:34;;;;;;;58.83;41.20;;;;;;;9.66;100.00;98799.80;1690473;85;21455;-67
2022/05/14 00:27:01;;;;;;;47.35;37.80;;;;;;;9.68;100.00;98800.06;1690343;84;21115;-69
2022/05/14 00:29:29;;;;;;;44.85;34.18;;;;;;;9.65;100.00;98799.55;1690411;84;20945;-67
2022/05/14 00:31:56;;;;;;;41.83;33.80;;;;;;;9.62;100.00;98802.73;1690561;85;21018;-69
2022/05/14 00:34:23;;;;;;;53.25;39.55;;;;;;;9.57;100.00;98797.37;1690464;84;20991;-68
2022/05/14 00:36:49;;;;;;;39.98;32.20;;;;;;;9.54;100.00;98792.55;1690529;85;21562;-67
2022/05/14 00:39:17;;;;;;;27.27;22.02;;;;;;;9.53;100.00;98790.13;1690424;85;21178;-68
2022/05/14 00:41:48;;;;;;;29.32;20.37;;;;;;;9.53;100.00;98783.43;1690273;85;21556;-69
2022/05/14 00:44:15;;;;;;;21.62;18.05;;;;;;;9.58;100.00;98785.60;1690323;85;20941;-68
2022/05/14 00:47:04;;;;;;;21.10;17.12;;;;;;;9.63;100.00;98786.15;1660071;85;20965;-69
2022/05/14 00:49:32;;;;;;;20.52;17.60;;;;;;;9.63;100.00;98776.77;1690310;84;20968;-69
2022/05/14 00:52:00;;;;;;;;;;;;;;;9.62;100.00;98777.83;1693076;85;21805;-67
2022/05/14 00:54:41;;;;;;;24.70;16.75;;;;;;;9.58;100.00;98776.77;1690284;85;20107;-67
2022/05/14 00:57:12;;;;;;;22.20;14.65;;;;;;;9.55;100.00;98779.41;1690511;84;21418;-69
2022/05/14 00:59:39;;;;;;;16.50;11.45;;;;;;;9.52;100.00;98775.14;1690333;84;21035;-68
2022/05/14 01:02:07;;;;;;;16.95;12.47;;;;;;;9.49;100.00;98770.31;1690428;85;20913;-68
2022/05/14 01:04:33;;;;;;;16.05;12.80;;;;;;;9.48;100.00;98766.84;1690475;85;21902;-66
2022/05/14 01:07:06;;;;;;;20.48;13.35;;;;;;;9.46;100.00;98774.33;1690381;84;20921;-68
2022/05/14 01:09:36;;;;;;;20.48;14.05;;;;;;;9.43;100.00;98770.82;1690465;85;21020;-67
2022/05/14 01:12:05;;;;;;;22.65;14.93;;;;;;;9.39;100.00;98770.56;1690668;85;21587;-68
2022/05/14 01:14:34;;;;;;;20.12;13.70;;;;;;;9.33;100.00;98766.25;1690566;85;20949;-69
2022/05/14 01:17:01;;;;;;;19.10;14.60;;;;;;;9.30;100.00;98768.66;1690433;85;21974;-68
2022/05/14 01:19:30;;;;;;;17.80;13.90;;;;;;;9.23;100.00;98762.21;1690465;84;20996;-66
2022/05/14 01:22:29;;;;;;;18.15;13.75;;;;;;;9.18;100.00;98769.69;1690437;85;20924;-69
2022/05/14 01:28:09;;;;;;;21.60;14.18;;;;;;;9.18;100.00;98770.23;1690520;85;21000;-70
2022/05/14 01:30:50;;;;;;;14.20;12.47;;;;;;;9.17;100.00;98757.93;1690509;84;21180;-70
2022/05/14 01:33:19;;;;;;;18.70;13.05;;;;;;;9.14;100.00;98758.46;1690343;84;20909;-68
2022/05/14 01:35:46;;;;;;;20.60;13.35;;;;;;;9.20;100.00;98759.53;1690811;85;20909;-70
2022/05/14 01:38:14;;;;;;;23.42;13.18;;;;;;;9.27;100.00;98761.97;1690402;84;21483;-68
2022/05/14 01:40:42;;;;;;;20.45;13.50;;;;;;;9.31;100.00;98761.72;1690316;84;21017;-68
2022/05/14 01:43:09;;;;;;;17.65;11.90;;;;;;;9.33;100.00;98760.09;1690556;85;21544;-68
2022/05/14 01:45:37;;;;;;;20.80;12.93;;;;;;;9.35;100.00;98760.64;1690371;85;20949;-68
2022/05/14 01:48:06;;;;;;;18.95;12.05;;;;;;;9.40;100.00;98760.11;1690301;85;21006;-68
2022/05/14 01:50:33;;;;;;;22.85;12.50;;;;;;;9.47;100.00;98756.38;1690657;85;20949;-68
2022/05/14 01:53:00;;;;;;;19.07;13.20;;;;;;;9.52;100.00;98757.72;1690660;85;21495;-68
2022/05/14 01:55:28;;;;;;;25.05;13.90;;;;;;;9.56;100.00;98754.25;1690939;85;21420;-67
2022/05/14 01:57:55;;;;;;;20.95;11.95;;;;;;;9.52;100.00;98755.84;1690558;85;20917;-67
2022/05/14 02:00:24;;;;;;;15.68;11.55;;;;;;;9.48;100.00;98751.28;1690531;84;21557;-68
2022/05/14 02:02:53;;;;;;;;;;;;;;;9.47;100.00;98751.02;1693075;85;21061;-66
2022/05/14 02:05:21;;;;;;;20.12;11.97;;;;;;;9.47;100.00;98746.46;1690715;85;20144;-66
2022/05/14 02:07:49;;;;;;;20.05;11.30;;;;;;;9.47;100.00;98747.80;1690525;84;21173;-67
2022/05/14 02:10:16;;;;;;;17.12;11.75;;;;;;;9.46;100.00;98746.20;1690486;85;21492;-65
2022/05/14 02:12:43;;;;;;;21.68;12.23;;;;;;;9.45;100.00;98745.92;1690647;85;20941;-66
2022/05/14 02:15:11;;;;;;;18.42;11.97;;;;;;;9.43;100.00;98736.00;1690413;85;21001;-67
2022/05/14 02:17:38;;;;;;;18.85;11.80;;;;;;;9.39;100.00;98741.64;1690630;84;20906;-67
2022/05/14 02:20:08;;;;;;;20.68;12.73;;;;;;;9.33;100.00;98742.14;1690509;84;21112;-67
2022/05/14 02:22:35;;;;;;;20.97;12.78;;;;;;;9.32;100.00;98738.41;1690463;85;20984;-68
2022/05/14 02:25:01;;;;;;;17.65;12.15;;;;;;;9.25;100.00;98733.84;1690555;85;20909;-67
2022/05/14 02:27:28;;;;;;;18.42;11.28;;;;;;;9.19;100.00;98727.14;1690436;84;20930;-69
2022/05/14 02:29:56;;;;;;;17.48;11.40;;;;;;;9.17;100.00;98731.16;1690779;84;20945;-67
2022/05/14 02:32:25;;;;;;;21.87;11.75;;;;;;;9.13;100.00;98728.19;1690501;85;21229;-68
2022/05/14 02:34:53;;;;;;;18.00;12.40;;;;;;;9.11;100.00;98733.53;1690599;85;21068;-68
2022/05/14 02:37:23;;;;;;;;;;;;;;;9.12;100.00;98735.95;1693163;85;20906;-67
2022/05/14 02:39:51;;;;;;;19.20;11.45;;;;;;;9.14;100.00;98735.16;1690750;85;20151;-68
2022/05/14 02:42:18;;;;;;;19.50;13.00;;;;;;;9.19;100.00;98736.52;1690660;85;20947;-68
2022/05/14 02:44:44;;;;;;;15.20;11.00;;;;;;;9.23;100.00;98739.45;1659983;85;21114;-67
2022/05/14 02:47:11;;;;;;;19.73;11.60;;;;;;;9.25;100.00;98727.95;1690527;84;20957;-68
2022/05/14 02:49:40;;;;;;;15.65;11.10;;;;;;;9.28;100.00;98730.09;1690495;85;21574;-67
2022/05/14 02:52:07;;;;;;;16.48;11.50;;;;;;;9.29;100.00;98731.72;1690440;85;20961;-67
2022/05/14 02:54:35;;;;;;;14.93;11.20;;;;;;;9.28;100.00;98728.75;1660336;85;20965;-68
2022/05/14 02:57:03;;;;;;;18.07;11.68;;;;;;;9.28;100.00;98726.07;1690395;84;21524;-66
2022/05/14 02:59:30;;;;;;;24.00;11.53;;;;;;;9.28;100.00;98730.63;1690804;85;20938;-68
2022/05/14 03:01:58;;;;;;;19.42;11.68;;;;;;;9.31;100.00;98731.43;1690504;84;21010;-68
2022/05/14 03:04:28;;;;;;;17.10;11.20;;;;;;;9.30;100.00;98735.98;1690745;85;20925;-67
2022/05/14 03:06:57;;;;;;;16.55;11.25;;;;;;;9.27;100.00;98735.19;1690412;85;20957;-67
2022/05/14 03:09:24;;;;;;;16.00;11.83;;;;;;;9.25;100.00;98729.83;1690622;85;21122;-70
2022/05/14 03:11:52;;;;;;;14.13;11.35;;;;;;;9.24;100.00;98742.42;1690764;84;20910;-68
2022/05/14 03:14:19;;;;;;;19.00;11.88;;;;;;;9.35;100.00;98767.33;1690517;84;21004;-68
2022/05/14 03:16:47;;;;;;;15.93;10.85;;;;;;;9.52;100.00;98775.14;1690703;85;21009;-68
2022/05/14 03:19:15;;;;;;;18.42;9.43;;;;;;;9.76;100.00;98760.16;1690635;85;20909;-73
2022/05/14 03:21:42;;;;;;;12.07;8.98;;;;;;;10.12;100.00;98748.59;1655353;85;21278;-67
2022/05/14 03:24:10;;;;;;;16.15;8.58;;;;;;;10.55;100.00;98776.72;1660132;85;20877;-67
2022/05/14 03:26:41;;;;;;;15.68;8.63;;;;;;;10.81;100.00;98778.80;1660113;85;24591;-68
2022/05/14 03:29:09;;;;;;;10.40;6.87;;;;;;;10.98;100.00;98770.96;1659961;85;20893;-69
2022/05/14 03:31:36;;;;;;;15.03;7.80;;;;;;;11.13;100.00;98771.68;1690477;84;20881;-67
2022/05/14 03:34:04;;;;;;;12.47;7.03;;;;;;;11.26;100.00;98770.81;1690819;85;22105;-67
2022/05/14 03:36:31;;;;;;;14.03;6.73;;;;;;;11.36;100.00;98766.17;1690527;85;20921;-68
2022/05/14 03:38:58;;;;;;;16.40;6.28;;;;;;;11.47;100.00;98764.79;1690593;84;20953;-67
2022/05/14 03:41:25;;;;;;;15.58;6.78;;;;;;;11.58;100.00;98764.42;1690441;85;21459;-68
2022/05/14 03:43:52;;;;;;;7.65;5.50;;;;;;;11.66;100.00;98767.08;1690462;85;20969;-67
2022/05/14 03:46:19;;;;;;;8.68;6.12;;;;;;;11.81;100.00;98771.54;1690596;84;21178;-68
2022/05/14 03:48:46;;;;;;;11.30;6.35;;;;;;;11.96;100.00;98771.44;1690482;85;20944;-67
2022/05/14 03:51:13;;;;;;;7.45;5.92;;;;;;;12.14;100.00;98771.83;1690535;85;21041;-67
2022/05/14 03:53:40;;;;;;;13.75;6.92;;;;;;;12.29;100.00;98772.22;1690375;85;20949;-68
2022/05/14 03:56:07;;;;;;;8.65;5.72;;;;;;;12.40;100.00;98777.78;1690562;85;20989;-67
2022/05/14 03:58:35;;;;;;;7.07;5.43;;;;;;;12.56;100.00;98771.68;1690735;85;21943;-72
2022/05/14 04:01:03;;;;;;;21.57;6.40;;;;;;;12.74;100.00;98780.38;1690742;84;20953;-67
2022/05/14 04:03:33;;;;;;;7.95;5.40;;;;;;;12.77;100.00;98784.39;1690365;85;21526;-66
2022/05/14 04:06:04;;;;;;;20.20;6.00;;;;;;;12.81;100.00;98783.53;1690362;85;20957;-68
2022/05/14 04:08:30;;;;;;;8.20;5.30;;;;;;;12.78;100.00;98788.67;1690632;85;21000;-68
2022/05/14 04:10:58;;;;;;;10.73;5.57;;;;;;;12.83;100.00;98784.57;1690649;84;21268;-66
2022/05/14 04:13:26;;;;;;;10.80;6.42;;;;;;;12.83;100.00;98787.27;1690430;85;20877;-68
2022/05/14 04:15:54;;;;;;;7.80;5.30;;;;;;;12.89;100.00;98783.98;1690662;85;21547;-69
2022/05/14 04:18:24;;;;;;;10.40;5.67;;;;;;;12.94;100.00;98782.03;1690404;85;21036;-68
2022/05/14 04:20:57;;;;;;;14.83;6.03;;;;;;;12.98;100.00;98782.23;1690468;84;21005;-69
2022/05/14 04:23:25;;;;;;;8.00;5.28;;;;;;;13.02;100.00;98792.70;1690314;84;21247;-67
2022/05/14 04:25:52;;;;;;;47.23;6.70;;;;;;;13.08;100.00;98791.02;1690728;85;21538;-70
2022/05/14 04:28:19;;;;;;;12.63;6.10;;;;;;;13.08;100.00;98800.45;1690682;85;21004;-69
2022/05/14 04:30:47;;;;;;;13.25;5.37;;;;;;;13.14;100.00;98799.03;1690472;85;21026;-70
2022/05/14 04:33:14;;;;;;;14.50;5.58;;;;;;;13.14;100.00;98804.42;1690561;85;20921;-69
2022/05/14 04:35:41;;;;;;;7.35;5.20;;;;;;;13.16;100.00;98799.55;1690462;84;21238;-69
2022/05/14 04:38:09;;;;;;;8.38;5.12;;;;;;;13.17;100.00;98807.88;1690534;84;20906;-68
2022/05/14 04:40:36;;;;;;;8.58;5.35;;;;;;;13.15;100.00;98807.36;1690549;85;20949;-68
2022/05/14 04:43:06;;;;;;;8.93;6.03;;;;;;;13.14;100.00;98809.26;1690691;84;20957;-69
2022/05/14 04:45:36;;;;;;;9.48;4.95;;;;;;;13.11;100.00;98808.50;1690609;85;20965;-69
2022/05/14 04:48:04;;;;;;;;;;;;;;;13.12;100.00;98816.03;1692878;85;21235;-68
2022/05/14 04:50:31;;;;;;;13.32;5.33;;;;;;;13.11;100.00;98809.05;1690628;85;20115;-69
2022/05/14 04:52:59;;;;;;;9.50;5.62;;;;;;;13.07;100.00;98820.37;1659923;85;21514;-69
2022/05/14 04:55:26;;;;;;;10.03;5.10;;;;;;;13.02;100.00;98825.03;1690439;84;20910;-68
2022/05/14 04:57:54;;;;;;;14.03;5.37;;;;;;;13.02;100.00;98825.03;1690452;85;21004;-69
2022/05/14 05:00:22;;;;;;;;;;;;;;;12.98;100.00;98825.34;1692922;84;21168;-69
2022/05/14 05:05:37;;;;;;;8.85;5.12;;;;;;;12.90;100.00;98829.47;1690324;85;20909;-69
2022/05/14 05:08:05;;;;;;;7.00;4.97;;;;;;;12.84;100.00;98830.62;1690524;84;20981;-69
2022/05/14 05:10:32;;;;;;;12.47;6.15;;;;;;;12.82;100.00;98834.14;1690541;85;20969;-70
2022/05/14 05:12:59;;;;;;;10.50;5.92;;;;;;;12.80;100.00;98838.46;1690394;85;21275;-72
2022/05/14 05:15:26;;;;;;;11.22;5.67;;;;;;;12.80;100.00;98837.66;1690324;84;21479;-69
2022/05/14 05:17:52;;;;;;;9.88;5.30;;;;;;;12.79;100.00;98832.03;1690493;85;20953;-70
2022/05/14 05:20:20;;;;;;;9.33;6.17;;;;;;;12.80;100.00;98834.42;1690397;85;21637;-70
2022/05/14 05:22:52;;;;;;;;;;;;;;;12.80;100.00;98834.42;1693126;84;20901;-69
2022/05/14 05:25:16;;;;;;;8.78;4.97;;;;;;;12.79;100.00;98830.14;1630165;86;20652;-69
2022/05/14 05:27:44;;;;;;;14.53;5.77;;;;;;;12.78;100.00;98826.38;1690633;85;20945;-69
2022/05/14 05:30:11;;;;;;;6.80;4.90;;;;;;;12.76;100.00;98827.99;1690752;84;21523;-69
2022/05/14 05:32:38;;;;;;;8.45;5.12;;;;;;;12.74;100.00;98820.77;1690787;85;28136;-70
2022/05/14 05:35:07;;;;;;;9.40;5.15;;;;;;;12.75;100.00;98811.59;1690597;85;20905;-69
2022/05/14 05:37:33;;;;;;;;;;;;;;;12.77;100.00;98822.09;1693342;85;21189;-67
2022/05/14 05:40:00;;;;;;;15.03;5.85;;;;;;;12.79;100.00;98819.37;1690582;84;20175;-69
2022/05/14 05:42:27;;;;;;;7.10;4.65;;;;;;;12.82;100.00;98819.34;1690727;85;20957;-66
2022/05/14 05:44:55;;;;;;;12.82;5.65;;;;;;;12.81;100.00;98821.75;1690657;84;20937;-70
2022/05/14 05:47:23;;;;;;;12.18;5.92;;;;;;;12.83;100.00;98824.42;1690652;85;21008;-68
2022/05/14 05:49:50;;;;;;;9.87;4.93;;;;;;;12.87;100.00;98830.05;1690769;85;21160;-68
2022/05/14 05:52:18;;;;;;;;;;;;;;;12.91;100.00;98839.69;1692907;84;20917;-68
2022/05/14 05:57:37;;;;;;;9.60;5.12;;;;;;;13.01;100.00;98843.64;1690538;85;21040;-67
2022/05/14 06:00:08;;;;;;;13.35;5.20;;;;;;;13.07;100.00;98851.36;1690688;84;21519;-70
2022/05/14 06:02:38;;;;;;;11.95;5.10;;;;;;;13.16;100.00;98861.52;1690683;84;21460;-69
2022/05/14 06:05:07;;;;;;;9.00;5.65;;;;;;;13.23;100.00;98870.06;1690498;84;20945;-69
2022/05/14 06:07:34;;;;;;;13.88;4.95;;;;;;;13.26;100.00;98870.83;1690855;85;20960;-69
2022/05/14 06:10:04;;;;;;;9.80;4.78;;;;;;;13.34;100.00;98879.64;1690479;84;20972;-68
2022/05/14 06:12:31;;;;;;;7.25;5.22;;;;;;;13.37;100.00;98883.66;1690596;84;20985;-70
2022/05/14 06:14:58;;;;;;;10.23;5.22;;;;;;;13.46;100.00;98886.77;1661537;85;21165;-68
2022/05/14 06:17:24;;;;;;;14.55;5.35;;;;;;;13.53;100.00;98892.38;1690562;85;20870;-68
2022/05/14 06:19:52;;;;;;;12.00;5.23;;;;;;;13.54;100.00;98893.96;1690677;85;21567;-70
2022/05/14 06:22:20;;;;;;;9.48;4.95;;;;;;;13.64;100.00;98893.83;1690485;85;21464;-69
2022/05/14 06:24:46;;;;;;;9.63;5.25;;;;;;;13.70;100.00;98890.78;1690577;85;20917;-68
2022/05/14 06:27:13;;;;;;;8.53;5.55;;;;;;;13.75;100.00;98902.60;1690617;85;21575;-68
2022/05/14 06:29:41;;;;;;;13.93;5.62;;;;;;;13.76;100.00;98897.45;1690484;85;20957;-69
2022/05/14 06:32:08;;;;;;;10.10;4.92;;;;;;;13.77;100.00;98907.13;1690714;85;20965;-68
2022/05/14 06:34:36;;;;;;;12.78;5.58;;;;;;;13.83;100.00;98906.78;1690635;85;20917;-71
2022/05/14 06:37:04;;;;;;;8.40;4.55;;;;;;;13.87;100.00;98903.77;1690521;85;21013;-71
2022/05/14 06:39:30;;;;;;;10.47;5.13;;;;;;;13.83;100.00;98906.78;1691107;85;21238;-69
2022/05/14 06:41:58;;;;;;;10.33;5.90;;;;;;;13.84;100.00;98917.84;1690757;85;21447;-71
2022/05/14 06:44:25;;;;;;;14.40;5.40;;;;;;;13.85;100.00;98908.65;1690517;85;20917;-68
2022/05/14 06:46:51;;;;;;;12.95;4.90;;;;;;;13.83;100.00;98921.62;1690571;85;20964;-71
2022/05/14 06:49:18;;;;;;;12.15;4.78;;;;;;;13.86;100.00;98920.23;1690579;85;21447;-70
2022/05/14 06:51:45;;;;;;;11.50;5.12;;;;;;;13.89;100.00;98931.27;1690479;85;21335;-69
2022/05/14 06:54:12;;;;;;;10.75;5.17;;;;;;;13.88;100.00;98926.95;1690509;85;21013;-69
2022/05/14 06:56:42;;;;;;;9.13;4.80;;;;;;;13.93;100.00;98936.31;1690748;85;21040;-71
2022/05/14 06:59:09;;;;;;;;;;;;;;;14.00;100.00;98938.66;1692893;85;20925;-71
2022/05/14 07:01:38;;;;;;;8.50;5.42;;;;;;;14.13;100.00;98945.22;1690677;84;20454;-71
2022/05/14 07:06:52;;;;;;;8.15;4.97;;;;;;;14.06;100.00;98942.91;1690717;85;21005;-69
2022/05/14 07:09:27;;;;;;;6.17;4.85;;;;;;;14.01;100.00;98942.95;1690608;85;21056;-69
2022/05/14 07:12:00;;;;;;;8.20;4.25;;;;;;;14.09;100.00;98942.87;1690954;84;21004;-73
2022/05/14 07:14:27;;;;;;;10.25;5.00;;;;;;;14.08;100.00;98952.84;1690485;85;20953;-70
2022/05/14 07:16:54;;;;;;;8.10;4.73;;;;;;;14.07;100.00;98947.20;1690694;84;21166;-71
2022/05/14 07:19:21;;;;;;;8.28;4.90;;;;;;;14.05;100.00;98948.03;1690591;85;21065;-72
2022/05/14 07:21:49;;;;;;;11.05;5.05;;;;;;;13.98;100.00;98940.84;1690455;85;20949;-70
2022/05/14 07:24:25;;;;;;;15.38;5.37;;;;;;;14.04;100.00;98953.73;1690565;85;20914;-69
2022/05/14 07:26:54;;;;;;;7.85;4.20;;;;;;;14.06;100.00;98948.83;1690753;85;21016;-72
2022/05/14 07:29:25;;;;;;;9.65;4.00;;;;;;;14.07;100.00;98953.14;1690594;85;21322;-70
2022/05/14 07:31:53;;;;;;;10.13;4.30;;;;;;;14.17;100.00;98958.95;1690318;84;20965;-69
2022/05/14 07:34:21;;;;;;;8.30;4.30;;;;;;;14.22;100.00;98960.22;1690560;85;21076;-68
2022/05/14 07:36:56;;;;;;;8.90;4.60;;;;;;;14.36;100.00;98959.19;1690595;85;20878;-67
2022/05/14 07:39:25;;;;;;;6.97;4.45;;;;;;;14.45;100.00;98966.06;1690577;85;21001;-71
2022/05/14 07:41:53;;;;;;;14.15;4.65;;;;;;;14.58;99.94;98964.02;1690623;85;21220;-70
2022/05/14 07:44:22;;;;;;;10.23;4.47;;;;;;;14.90;99.89;98962.97;1690286;85;21665;-71
2022/05/14 07:46:49;;;;;;;10.28;4.53;;;;;;;15.11;97.38;98963.41;1690866;84;20925;-72
2022/05/14 07:49:17;;;;;;;13.48;4.83;;;;;;;15.33;94.94;98974.34;1660419;85;20931;-73
2022/05/14 07:51:45;;;;;;;9.93;4.73;;;;;;;15.73;90.59;98971.20;1660478;85;20965;-71
2022/05/14 07:54:11;;;;;;;12.65;5.97;;;;;;;15.81;83.53;98975.33;1690348;85;21255;-70
2022/05/14 07:56:39;;;;;;;7.60;5.35;;;;;;;15.93;84.09;98978.88;1690376;84;20905;-71
2022/05/14 07:59:06;;;;;;;11.63;6.00;;;;;;;16.28;80.60;98983.27;1690740;84;21601;-67
2022/05/14 08:01:33;;;;;;;11.40;4.65;;;;;;;16.13;78.69;98976.84;1690452;85;20952;-74
2022/05/14 08:04:00;;;;;;;9.28;3.83;;;;;;;16.50;78.17;98976.52;1655420;85;21636;-65
2022/05/14 08:06:28;;;;;;;5.83;3.33;;;;;;;17.04;73.71;98981.22;1690330;85;21656;-72
2022/05/14 08:08:55;;;;;;;6.28;3.15;;;;;;;17.52;70.50;98987.28;1690739;85;20913;-70
2022/05/14 08:11:22;;;;;;;7.42;2.85;;;;;;;17.48;67.27;98979.52;1690423;85;20956;-68
2022/05/14 08:13:50;;;;;;;5.85;3.47;;;;;;;17.41;68.17;98981.88;1690404;85;20917;-71
2022/05/14 08:16:18;;;;;;;4.83;3.10;;;;;;;17.48;67.17;98980.88;1690489;85;20957;-72
2022/05/14 08:18:45;;;;;;;8.27;3.90;;;;;;;17.66;67.94;98978.45;1639547;85;22289;-69
2022/05/14 08:26:46;;;;;;;4.17;2.83;;;;;;;17.57;64.42;98969.50;1690401;84;21514;-70
2022/05/14 08:29:13;;;;;;;3.22;2.80;;;;;;;17.04;66.11;98971.73;1690392;85;21534;-73
2022/05/14 08:31:40;;;;;;;6.15;2.92;;;;;;;17.36;66.92;98976.03;1687969;84;20964;-72
2022/05/14 08:34:08;;;;;;;5.92;2.67;;;;;;;17.97;62.43;98967.55;1680226;85;37492;-71
2022/05/14 08:36:35;;;;;;;7.22;2.62;;;;;;;18.31;60.63;98965.99;1687066;85;20905;-71
2022/05/14 08:39:03;;;;;;;6.60;2.27;;;;;;;18.94;59.30;98967.81;1686971;85;20952;-72
2022/05/14 08:41:31;;;;;;;;;;;;;;;18.94;58.44;98970.53;1689499;85;21106;-71
2022/05/14 08:44:00;;;;;;;5.12;2.42;;;;;;;19.17;55.05;98971.09;1686974;85;22406;-70
2022/05/14 08:46:29;;;;;;;7.78;1.90;;;;;;;19.26;55.12;98973.23;1687033;85;20853;-73
2022/05/14 08:49:00;;;;;;;;;;;;;;;19.05;55.68;98975.05;1689460;85;20865;-71
2022/05/14 08:51:33;;;;;;;4.90;1.75;;;;;;;19.18;53.36;98963.19;1686941;85;20828;-73
2022/05/14 08:54:00;;;;;;;4.95;2.30;;;;;;;18.99;54.33;98969.00;1686908;85;20920;-74
2022/05/14 08:56:36;;;;;;;4.33;2.00;;;;;;;19.04;54.53;98964.74;1687073;85;21442;-71
2022/05/14 08:59:28;;;;;;;6.33;2.17;;;;;;;19.20;53.33;98956.84;1686879;85;20940;-69
2022/05/14 09:02:08;;;;;;;4.42;2.47;;;;;;;19.30;52.04;98962.48;1686050;85;20980;-71
2022/05/14 09:04:35;;;;;;;6.40;2.30;;;;;;;19.19;54.23;98957.98;1686876;85;20901;-71
2022/05/14 09:07:03;;;;;;;2.22;1.70;;;;;;;19.43;54.40;98953.33;1687167;85;20944;-74
2022/05/14 09:09:31;;;;;;;12.03;2.67;;;;;;;19.66;53.31;98945.67;1686994;85;21272;-70
2022/05/14 09:12:01;;;;;;;2.98;1.92;;;;;;;19.97;55.18;98947.30;1686893;85;21427;-73
2022/05/14 09:14:37;;;;;;;4.80;1.98;;;;;;;20.06;49.54;98949.95;1686891;85;20889;-73
2022/05/14 09:17:20;;;;;;;6.03;2.08;;;;;;;20.07;50.24;98944.75;1686771;85;21486;-70
2022/05/14 09:19:50;;;;;;;4.70;1.92;;;;;;;20.26;49.53;98955.98;1686952;85;20873;-69
2022/05/14 09:22:34;;;;;;;1.90;1.70;;;;;;;19.87;50.05;98948.48;1686917;85;21255;-70
2022/05/14 09:25:16;;;;;;;3.72;1.85;;;;;;;19.54;50.71;98950.23;1686847;85;21018;-70
2022/05/14 09:27:58;;;;;;;2.87;1.65;;;;;;;19.63;51.55;98950.99;1686560;85;21064;-71
2022/05/14 09:30:42;;;;;;;6.05;2.40;;;;;;;20.26;50.53;98953.80;1687355;85;21519;-70
2022/05/14 09:33:38;;;;;;;3.40;1.90;;;;;;;19.87;51.42;98956.65;1686876;85;20936;-71
2022/05/14 09:36:28;;;;;;;3.52;1.60;;;;;;;19.23;51.48;98958.11;1686978;85;21171;-71
2022/05/14 09:39:09;;;;;;;4.65;2.00;;;;;;;18.63;53.39;98949.75;1666575;85;21572;-72
2022/05/14 09:41:45;;;;;;;5.45;2.42;;;;;;;18.21;55.26;98956.80;1666720;86;20868;-70
2022/05/14 09:44:30;;;;;;;7.00;3.00;;;;;;;18.05;54.75;98951.02;1666557;86;20959;-69
2022/05/14 09:47:30;;;;;;;9.60;2.98;;;;;;;17.92;55.01;98957.41;1666901;86;20998;-71
2022/05/14 09:50:06;;;;;;;4.87;2.30;;;;;;;17.89;56.04;98949.91;1506412;95;22005;-71
2022/05/14 09:52:36;;;;;;;2.98;2.10;;;;;;;18.23;55.54;98958.65;1511477;95;21476;-71
2022/05/14 09:55:08;;;;;;;5.40;1.92;;;;;;;19.44;51.45;98950.83;1511418;94;21085;-71
2022/05/14 09:58:01;;;;;;;3.45;1.85;;;;;;;19.78;50.22;98962.70;1511656;94;20998;-72
2022/05/14 10:00:46;;;;;;;3.15;1.87;;;;;;;19.53;50.10;98959.53;1511530;94;21010;-72
2022/05/14 10:03:59;;;;;;;4.47;1.98;;;;;;;18.85;49.61;98964.30;1512468;94;21176;-72
2022/05/14 10:06:37;;;;;;;3.40;2.02;;;;;;;18.29;52.71;98960.08;1513171;94;21015;-73
2022/05/14 10:09:28;;;;;;;3.42;2.05;;;;;;;17.98;55.90;98963.73;1513574;94;20970;-73
2022/05/14 10:12:17;;;;;;;7.22;2.35;;;;;;;17.88;55.19;98965.37;1513327;94;20963;-68
2022/05/14 10:15:27;;;;;;;12.95;2.25;;;;;;;17.74;53.23;98966.84;1513344;94;21084;-75
2022/05/14 10:18:41;;;;;;;5.03;2.15;;;;;;;17.79;53.84;98964.55;1513560;94;21998;-73
2022/05/14 10:21:39;;;;;;;3.47;2.37;;;;;;;18.28;52.81;98963.92;1513355;94;21015;-72
2022/05/14 10:27:46;;;;;;;3.92;2.15;;;;;;;18.19;50.59;98963.11;1568236;89;20939;-69
2022/05/14 10:30:25;;;;;;;3.83;2.30;;;;;;;18.31;51.58;98961.92;1620395;88;21011;-70
2022/05/14 10:33:02;;;;;;;5.05;2.17;;;;;;;18.33;51.75;98958.89;1620396;88;21181;-71
2022/05/14 10:35:37;;;;;;;9.58;3.00;;;;;;;18.77;50.96;98958.33;1620412;88;20984;-70
2022/05/14 10:38:18;;;;;;;8.45;2.40;;;;;;;19.04;49.20;98955.79;1619877;88;20916;-71
2022/05/14 10:40:53;;;;;;;8.08;2.67;;;;;;;18.81;49.37;98956.01;1609175;89;20895;-71
2022/05/14 10:43:48;;;;;;;4.65;2.30;;;;;;;18.88;48.86;98932.38;1620329;88;20916;-71
2022/05/14 10:46:21;;;;;;;3.58;2.22;;;;;;;19.15;50.15;98949.42;1620287;88;21281;-70
2022/05/14 10:49:16;;;;;;;6.17;2.27;;;;;;;19.46;48.17;98948.58;1609199;89;20955;-68
2022/05/14 10:51:50;;;;;;;5.10;2.40;;;;;;;19.05;46.98;98947.29;1620121;88;20920;-68
2022/05/14 10:54:21;;;;;;;3.22;2.10;;;;;;;18.93;48.05;98953.17;1620188;88;20984;-68
2022/05/14 10:57:15;;;;;;;4.70;2.40;;;;;;;18.72;49.79;98953.03;1620303;88;21426;-70
2022/05/14 10:59:52;;;;;;;8.60;2.65;;;;;;;18.78;50.50;98944.97;1609578;88;21171;-67
2022/05/14 11:02:29;;;;;;;3.58;2.30;;;;;;;18.64;50.21;98943.21;1620300;88;21438;-68
2022/05/14 11:04:56;;;;;;;3.27;2.30;;;;;;;18.34;50.34;98949.61;1620240;88;21506;-70
2022/05/14 11:07:42;;;;;;;3.47;2.20;;;;;;;18.50;50.99;98948.02;1620535;88;20991;-70
2022/05/14 11:10:22;;;;;;;5.28;2.33;;;;;;;18.35;49.60;98952.59;1602356;89;20927;-71
2022/05/14 11:12:51;;;;;;;4.83;2.52;;;;;;;18.10;50.66;98960.38;1601962;89;21519;-69
2022/05/14 11:15:29;;;;;;;4.87;2.67;;;;;;;17.81;51.75;98956.92;1602523;89;20928;-70
2022/05/14 11:18:05;;;;;;;4.20;2.72;;;;;;;17.68;52.61;98965.37;1602560;89;20975;-69
2022/05/14 11:20:32;;;;;;;3.08;2.35;;;;;;;17.58;55.27;98959.67;1602407;89;21489;-68
2022/05/14 11:23:10;;;;;;;4.47;2.77;;;;;;;17.94;59.42;98956.53;1581615;89;21476;-71
2022/05/14 11:25:37;;;;;;;9.25;3.67;;;;;;;18.22;55.38;98957.03;1602974;89;21389;-69
2022/05/14 11:28:27;;;;;;;4.28;3.33;;;;;;;18.39;55.17;98960.31;1602482;89;20946;-69
2022/05/14 11:30:56;;;;;;;5.00;3.10;;;;;;;18.23;55.63;98957.29;1602315;89;21007;-72
2022/05/14 11:33:31;;;;;;;5.08;3.50;;;;;;;18.06;55.34;98947.20;1602498;89;21029;-68
2022/05/14 11:36:13;;;;;;;7.55;4.55;;;;;;;17.65;54.96;98944.86;1602465;89;21052;-65
2022/05/14 11:38:45;;;;;;;8.88;3.00;;;;;;;17.21;56.43;98946.62;1602440;89;21552;-72
2022/05/14 11:41:14;;;;;;;4.70;2.80;;;;;;;16.85;59.56;98953.75;1602697;89;21006;-67
2022/05/14 11:43:47;;;;;;;6.05;3.22;;;;;;;16.64;60.38;98942.61;1602511;89;21001;-73
2022/05/14 11:46:44;;;;;;;6.30;3.05;;;;;;;16.35;62.67;98943.03;1604584;88;21024;-71
2022/05/14 11:49:38;;;;;;;6.55;3.47;;;;;;;16.20;63.94;98942.83;1620115;88;21474;-70
2022/05/14 11:52:20;;;;;;;7.20;3.15;;;;;;;16.24;65.23;98949.24;1620187;88;21430;-71
2022/05/14 11:55:04;;;;;;;6.25;2.85;;;;;;;16.37;65.25;98947.59;1569731;91;21469;-70
2022/05/14 11:57:45;;;;;;;5.03;2.98;;;;;;;16.56;63.18;98943.89;1569976;91;21052;-70
2022/05/14 12:00:21;;;;;;;7.15;2.90;;;;;;;16.93;63.59;98942.18;1569890;91;20995;-69
2022/05/14 12:03:02;;;;;;;7.15;3.08;;;;;;;17.33;58.84;98939.48;1569248;90;21526;-68
2022/05/14 12:05:38;;;;;;;8.35;3.50;;;;;;;17.79;55.22;98937.40;1569943;91;21288;-70
2022/05/14 12:08:35;;;;;;;19.27;3.10;;;;;;;17.86;54.79;98932.34;1569766;90;21473;-73
2022/05/14 12:11:28;;;;;;;4.12;2.60;;;;;;;17.96;53.67;98934.73;1569919;91;21028;-73